Time;durP1;ratioP1;P1;durP2;ratioP2;P2;SDS_P1;SDS_P2;PMS_P1;PMS_P2;Temp;Humidity;BMP_temperature;BMP_pressure;BME280_temperature;BME280_humidity;BME280_pressure;Samples;Min_cycle;Max_cycle;Signal;HPM_P1;HPM_P2
2022/05/05 00:00:36;;;;;;;;;;;8.00;99.90;;;;;;5055791;28;19932;-49
2022/05/05 00:03:01;;;;;;;;;;;7.90;99.90;;;;;;5055705;28;19955;-48
2022/05/05 00:05:27;;;;;;;;;;;7.90;99.90;;;;;;5055572;28;19931;-48
2022/05/05 00:07:52;;;;;;;;;;;7.90;99.90;;;;;;5037507;28;20379;-48
2022/05/05 00:16:00;;;;;;;;;;;7.80;99.90;;;;;;5053120;28;20469;-48
2022/05/05 00:18:25;;;;;;;;;;;7.80;99.90;;;;;;5053136;28;19925;-49
2022/05/05 00:20:50;;;;;;;;;;;7.70;99.90;;;;;;5053034;28;20405;-48
2022/05/05 00:23:16;;;;;;;;;;;7.70;99.90;;;;;;5052963;28;20406;-48
2022/05/05 00:25:41;;;;;;;;;;;7.70;99.90;;;;;;5052976;28;19932;-48
2022/05/05 00:28:07;;;;;;;;;;;7.70;99.90;;;;;;5053004;28;19932;-48
2022/05/05 00:30:32;;;;;;;;;;;7.60;99.90;;;;;;5052887;28;19924;-47
2022/05/05 00:32:58;;;;;;;;;;;7.60;99.90;;;;;;5051873;28;20386;-48
2022/05/05 00:35:23;;;;;;;;;;;7.60;99.90;;;;;;5052544;28;19928;-48
2022/05/05 00:37:49;;;;;;;;;;;7.60;99.90;;;;;;5052834;28;19925;-48
2022/05/05 00:40:14;;;;;;;;;;;7.60;99.90;;;;;;5052777;28;20361;-48
2022/05/05 00:42:40;;;;;;;;;;;7.60;99.90;;;;;;5052641;28;19932;-47
2022/05/05 00:45:05;;;;;;;;;;;7.60;99.90;;;;;;5052688;28;20258;-47
2022/05/05 00:47:31;;;;;;;;;;;7.60;99.90;;;;;;5052518;28;19936;-48
2022/05/05 00:49:59;;;;;;;;;;;7.50;99.90;;;;;;5054574;28;19994;-48
2022/05/05 00:52:25;;;;;;;;;;;7.50;99.90;;;;;;5036581;28;19924;-49
2022/05/05 00:54:51;;;;;;;;;;;7.50;99.90;;;;;;5054505;28;20383;-52
2022/05/05 00:57:17;;;;;;;;;;;7.50;99.90;;;;;;5054571;28;19932;-48
2022/05/05 00:59:43;;;;;;;;;;;7.50;99.90;;;;;;5054687;28;19932;-48
2022/05/05 01:02:08;;;;;;;;;;;7.40;99.90;;;;;;5037056;28;20267;-53
2022/05/05 01:04:35;;;;;;;;;;;7.40;99.90;;;;;;5036487;28;19931;-47
2022/05/05 01:07:01;;;;;;;;;;;7.40;99.90;;;;;;5054218;28;20401;-47
2022/05/05 01:09:26;;;;;;;;;;;7.30;99.90;;;;;;5054373;28;19967;-49
2022/05/05 01:11:52;;;;;;;;;;;7.40;99.90;;;;;;5036416;28;20379;-49
2022/05/05 01:14:17;;;;;;;;;;;7.30;99.90;;;;;;5054244;28;19979;-50
2022/05/05 01:16:43;;;;;;;;;;;7.30;99.90;;;;;;5054382;28;19964;-47
2022/05/05 01:19:08;;;;;;;;;;;7.30;99.90;;;;;;5054277;28;19972;-48
2022/05/05 01:21:34;;;;;;;;;;;7.30;99.90;;;;;;5054182;28;19931;-48
2022/05/05 01:23:59;;;;;;;;;;;7.30;99.90;;;;;;5054341;28;19925;-48
2022/05/05 01:29:10;;;;;;;;;;;7.30;99.90;;;;;;5053923;28;19978;-48
2022/05/05 01:31:36;;;;;;;;;;;7.30;99.90;;;;;;5054049;28;19924;-47
2022/05/05 01:34:01;;;;;;;;;;;7.30;99.90;;;;;;5053862;28;19925;-48
2022/05/05 01:36:27;;;;;;;;;;;7.20;99.90;;;;;;5053979;28;20011;-49
2022/05/05 01:38:52;;;;;;;;;;;7.20;99.90;;;;;;5053777;28;20038;-47
2022/05/05 01:41:18;;;;;;;;;;;7.20;99.90;;;;;;5053790;28;20398;-48
2022/05/05 01:43:44;;;;;;;;;;;7.20;99.90;;;;;;5053337;28;19925;-51
2022/05/05 01:46:10;;;;;;;;;;;7.20;99.90;;;;;;5053754;28;19931;-48
2022/05/05 01:48:36;;;;;;;;;;;7.20;99.90;;;;;;5053705;28;20363;-47
2022/05/05 01:51:01;;;;;;;;;;;7.20;99.90;;;;;;5099755;22;19928;-47
2022/05/05 01:53:27;;;;;;;;;;;7.20;99.90;;;;;;5091354;28;20402;-47
2022/05/05 01:55:53;;;;;;;;;;;7.20;99.90;;;;;;5091063;28;19932;-50
2022/05/05 01:58:19;;;;;;;;;;;7.20;99.90;;;;;;5080299;28;19928;-46
2022/05/05 02:00:44;;;;;;;;;;;7.20;99.90;;;;;;5093904;28;19924;-46
2022/05/05 02:03:12;;;;;;;;;;;7.20;99.90;;;;;;5101116;28;19955;-48
2022/05/05 02:05:40;;;;;;;;;;;7.20;99.90;;;;;;5099513;28;21356;-49
2022/05/05 02:08:06;;;;;;;;;;;7.20;99.90;;;;;;5096136;28;19932;-47
2022/05/05 02:10:31;;;;;;;;;;;7.10;99.90;;;;;;5079533;28;19925;-48
2022/05/05 02:12:58;;;;;;;;;;;7.10;99.90;;;;;;5079014;28;19925;-48
2022/05/05 02:15:24;;;;;;;;;;;7.10;99.90;;;;;;5079502;28;19925;-48
2022/05/05 02:17:51;;;;;;;;;;;7.10;99.90;;;;;;5079283;28;19930;-52
2022/05/05 02:20:16;;;;;;;;;;;7.10;99.90;;;;;;5079335;28;19928;-46
2022/05/05 02:22:42;;;;;;;;;;;7.10;99.90;;;;;;5079383;28;19925;-48
2022/05/05 02:25:08;;;;;;;;;;;7.10;99.90;;;;;;5082433;28;19924;-47
2022/05/05 02:27:49;;;;;;;;;;;7.00;99.90;;;;;;5099981;28;19928;-49
2022/05/05 02:30:15;;;;;;;;;;;7.00;99.90;;;;;;5099623;28;19977;-47
2022/05/05 02:32:42;;;;;;;;;;;7.00;99.90;;;;;;5099675;28;19932;-49
2022/05/05 02:35:07;;;;;;;;;;;6.90;99.90;;;;;;5099861;28;19975;-48
2022/05/05 02:40:17;;;;;;;;;;;6.90;99.90;;;;;;5099906;28;20355;-48
2022/05/05 02:42:42;;;;;;;;;;;6.90;99.90;;;;;;5099936;28;19955;-51
2022/05/05 02:45:08;;;;;;;;;;;6.80;99.90;;;;;;5099956;28;19978;-48
2022/05/05 02:47:34;;;;;;;;;;;6.80;99.90;;;;;;5099838;28;19924;-48
2022/05/05 02:49:59;;;;;;;;;;;6.80;99.90;;;;;;5099224;28;19924;-47
2022/05/05 02:52:25;;;;;;;;;;;6.70;99.90;;;;;;5098940;28;20382;-48
2022/05/05 02:54:50;;;;;;;;;;;6.70;99.90;;;;;;5099522;28;19955;-47
2022/05/05 02:57:20;;;;;;;;;;;6.70;99.90;;;;;;5103871;28;20003;-51
2022/05/05 02:59:47;;;;;;;;;;;;;;;;;;5094896;28;19924;-46
2022/05/05 03:02:12;;;;;;;;;;;6.60;99.90;;;;;;5083870;28;19962;-47
2022/05/05 03:04:38;;;;;;;;;;;6.60;99.90;;;;;;5084021;28;19970;-49
2022/05/05 03:07:04;;;;;;;;;;;6.60;99.90;;;;;;5082997;28;19932;-47
2022/05/05 03:09:29;;;;;;;;;;;6.60;99.90;;;;;;5065167;28;19924;-51
2022/05/05 03:11:54;;;;;;;;;;;6.50;99.90;;;;;;5083569;28;19975;-48
2022/05/05 03:14:20;;;;;;;;;;;6.50;99.90;;;;;;5083527;28;19924;-49
2022/05/05 03:16:45;;;;;;;;;;;6.50;99.90;;;;;;5083049;28;19924;-48
2022/05/05 03:19:11;;;;;;;;;;;6.50;99.90;;;;;;5083220;28;19928;-49
2022/05/05 03:21:36;;;;;;;;;;;6.50;99.90;;;;;;5082695;28;20398;-51
2022/05/05 03:24:03;;;;;;;;;;;6.40;99.90;;;;;;5081796;28;20424;-50
2022/05/05 03:26:29;;;;;;;;;;;6.40;99.90;;;;;;5063722;28;19924;-47
2022/05/05 03:28:54;;;;;;;;;;;6.40;99.90;;;;;;5081311;28;19924;-47
2022/05/05 03:31:20;;;;;;;;;;;6.30;99.90;;;;;;5081381;28;19925;-46
2022/05/05 03:33:45;;;;;;;;;;;6.30;99.90;;;;;;5063882;28;19925;-48
2022/05/05 03:36:11;;;;;;;;;;;6.30;99.90;;;;;;5081719;28;19924;-47
2022/05/05 03:38:36;;;;;;;;;;;6.30;99.90;;;;;;5081348;28;19932;-47
2022/05/05 03:41:02;;;;;;;;;;;6.30;99.90;;;;;;5082449;28;19925;-49
2022/05/05 03:43:28;;;;;;;;;;;6.20;99.90;;;;;;5081965;28;19931;-47
2022/05/05 03:45:53;;;;;;;;;;;6.30;99.90;;;;;;5081763;28;19925;-47
2022/05/05 03:48:19;;;;;;;;;;;6.30;99.90;;;;;;5082457;28;19925;-47
2022/05/05 03:50:44;;;;;;;;;;;6.30;99.90;;;;;;5081191;28;19925;-48
2022/05/05 03:53:10;;;;;;;;;;;6.30;99.90;;;;;;5080427;28;19921;-46
2022/05/05 03:55:35;;;;;;;;;;;6.30;99.90;;;;;;5081592;28;19932;-47
2022/05/05 03:58:00;;;;;;;;;;;6.20;99.90;;;;;;5081199;28;19930;-46
2022/05/05 04:00:26;;;;;;;;;;;6.20;99.90;;;;;;5080429;28;19946;-48
2022/05/05 04:05:36;;;;;;;;;;;6.20;99.90;;;;;;5080736;28;19932;-46
2022/05/05 04:08:02;;;;;;;;;;;6.30;99.90;;;;;;5078909;28;19928;-47
2022/05/05 04:10:28;;;;;;;;;;;6.30;99.90;;;;;;5080776;28;20354;-47
2022/05/05 04:12:54;;;;;;;;;;;6.30;99.90;;;;;;5081031;28;19931;-47
2022/05/05 04:15:19;;;;;;;;;;;6.40;99.90;;;;;;5081427;28;19931;-50
2022/05/05 04:17:44;;;;;;;;;;;6.40;99.90;;;;;;5081820;28;19925;-48
2022/05/05 04:20:10;;;;;;;;;;;6.50;99.90;;;;;;5081411;28;19924;-49
2022/05/05 04:22:36;;;;;;;;;;;6.50;99.90;;;;;;5082180;28;20066;-46
2022/05/05 04:25:01;;;;;;;;;;;6.60;99.90;;;;;;5082250;28;19925;-46
2022/05/05 04:27:27;;;;;;;;;;;6.70;99.90;;;;;;5081725;28;19932;-47
2022/05/05 04:29:52;;;;;;;;;;;6.70;99.90;;;;;;5082310;28;19971;-47
2022/05/05 04:32:17;;;;;;;;;;;6.70;99.90;;;;;;5082082;28;19924;-47
2022/05/05 04:34:43;;;;;;;;;;;6.80;99.90;;;;;;5082098;28;20011;-50
2022/05/05 04:37:08;;;;;;;;;;;6.90;99.90;;;;;;5081219;28;19931;-47
2022/05/05 04:39:34;;;;;;;;;;;7.00;99.90;;;;;;5081208;28;19929;-46
2022/05/05 04:41:59;;;;;;;;;;;7.10;99.90;;;;;;5081366;28;19932;-47
2022/05/05 04:44:25;;;;;;;;;;;7.20;99.90;;;;;;5081090;28;20285;-52
2022/05/05 04:46:50;;;;;;;;;;;7.20;99.90;;;;;;5081209;28;19928;-46
2022/05/05 04:49:15;;;;;;;;;;;7.40;99.90;;;;;;5080713;28;19931;-49
2022/05/05 04:51:41;;;;;;;;;;;7.40;99.90;;;;;;5080217;28;19931;-49
2022/05/05 04:54:07;;;;;;;;;;;7.70;99.90;;;;;;5080955;28;19924;-47
2022/05/05 04:56:32;;;;;;;;;;;8.00;99.90;;;;;;5082039;28;19924;-49
2022/05/05 04:58:57;;;;;;;;;;;8.10;99.90;;;;;;5082047;28;19924;-48
2022/05/05 05:01:23;;;;;;;;;;;8.10;99.90;;;;;;5081534;28;19928;-49
2022/05/05 05:03:48;;;;;;;;;;;8.10;99.90;;;;;;5081243;28;20312;-46
2022/05/05 05:06:14;;;;;;;;;;;8.20;99.90;;;;;;5081784;28;19924;-47
2022/05/05 05:08:40;;;;;;;;;;;8.20;99.90;;;;;;5081578;28;19970;-50
2022/05/05 05:11:06;;;;;;;;;;;8.20;99.90;;;;;;5081458;28;19931;-51
2022/05/05 05:13:31;;;;;;;;;;;8.20;99.90;;;;;;5081314;28;19925;-47
2022/05/05 05:15:57;;;;;;;;;;;8.20;99.90;;;;;;5080839;28;20013;-48
2022/05/05 05:18:22;;;;;;;;;;;8.20;99.90;;;;;;5080609;28;19939;-49
2022/05/05 05:20:48;;;;;;;;;;;8.10;99.90;;;;;;5080172;28;19992;-47
2022/05/05 05:23:14;;;;;;;;;;;8.10;99.90;;;;;;5080142;28;19947;-46
2022/05/05 05:25:39;;;;;;;;;;;8.10;99.90;;;;;;5080793;28;19970;-47
2022/05/05 05:28:05;;;;;;;;;;;8.10;99.90;;;;;;5081068;28;19924;-47
2022/05/05 05:30:30;;;;;;;;;;;8.10;99.90;;;;;;5080840;28;20337;-47
2022/05/05 05:32:56;;;;;;;;;;;8.10;99.90;;;;;;5080678;28;20383;-49
2022/05/05 05:35:22;;;;;;;;;;;8.20;99.90;;;;;;5081192;28;19924;-47
2022/05/05 05:37:49;;;;;;;;;;;8.30;99.90;;;;;;5080897;28;20382;-46
2022/05/05 05:40:15;;;;;;;;;;;8.30;99.90;;;;;;5080672;28;19932;-48
2022/05/05 05:42:40;;;;;;;;;;;8.50;99.90;;;;;;5081077;28;19924;-46
2022/05/05 05:45:08;;;;;;;;;;;8.70;99.90;;;;;;5081446;28;19960;-49
2022/05/05 05:47:33;;;;;;;;;;;9.50;99.90;;;;;;5082866;28;19925;-46
2022/05/05 05:49:59;;;;;;;;;;;;;;;;;;5083625;28;19924;-45
2022/05/05 05:52:25;;;;;;;;;;;;;;;;;;5078076;28;20391;-46
2022/05/05 05:54:50;;;;;;;;;;;12.00;99.90;;;;;;5074578;28;19924;-51
2022/05/05 05:57:16;;;;;;;;;;;13.00;99.90;;;;;;5076553;28;19964;-47
2022/05/05 05:59:41;;;;;;;;;;;14.00;99.90;;;;;;5077071;28;19978;-50
2022/05/05 06:04:51;;;;;;;;;;;15.10;99.90;;;;;;5075864;28;19986;-51
2022/05/05 06:07:19;;;;;;;;;;;15.60;99.90;;;;;;5076046;28;19924;-49
2022/05/05 06:09:45;;;;;;;;;;;15.90;99.90;;;;;;5075797;28;19924;-51
2022/05/05 06:12:10;;;;;;;;;;;16.00;99.90;;;;;;5075602;28;20290;-48
2022/05/05 06:14:36;;;;;;;;;;;16.10;99.90;;;;;;5074834;28;19932;-48
2022/05/05 06:17:01;;;;;;;;;;;16.20;99.90;;;;;;5075348;28;19924;-46
2022/05/05 06:19:27;;;;;;;;;;;16.90;99.90;;;;;;5075079;28;19925;-48
2022/05/05 06:21:52;;;;;;;;;;;17.50;99.90;;;;;;5074858;28;20366;-51
2022/05/05 06:24:18;;;;;;;;;;;17.90;99.90;;;;;;5074713;28;20021;-50
2022/05/05 06:26:43;;;;;;;;;;;18.00;97.10;;;;;;5074711;28;20277;-48
2022/05/05 06:29:09;;;;;;;;;;;18.20;96.70;;;;;;5074073;28;19976;-47
2022/05/05 06:31:34;;;;;;;;;;;18.10;92.80;;;;;;5073860;28;19991;-47
2022/05/05 06:34:00;;;;;;;;;;;17.90;88.30;;;;;;5074433;28;20386;-48
2022/05/05 06:36:25;;;;;;;;;;;18.00;91.40;;;;;;5074444;28;20363;-48
2022/05/05 06:38:51;;;;;;;;;;;18.60;91.50;;;;;;5074290;28;19931;-48
2022/05/05 06:41:17;;;;;;;;;;;18.70;87.50;;;;;;5074254;28;19924;-49
2022/05/05 06:43:43;;;;;;;;;;;19.00;92.30;;;;;;5073909;28;19999;-47
2022/05/05 06:46:08;;;;;;;;;;;19.10;89.60;;;;;;5074371;28;19971;-51
2022/05/05 06:48:34;;;;;;;;;;;19.30;83.90;;;;;;5074146;28;19925;-48
2022/05/05 06:50:59;;;;;;;;;;;19.40;86.50;;;;;;5073780;28;20367;-48
2022/05/05 06:53:26;;;;;;;;;;;19.30;83.10;;;;;;5074261;28;19924;-47
2022/05/05 06:55:55;;;;;;;;;;;19.10;81.90;;;;;;5074003;28;20440;-49
2022/05/05 06:58:22;;;;;;;;;;;19.80;80.30;;;;;;5074137;28;20329;-48
2022/05/05 07:03:31;;;;;;;;;;;20.10;80.70;;;;;;5073964;28;20416;-49
2022/05/05 07:05:57;;;;;;;;;;;20.40;79.10;;;;;;5073924;28;19957;-47
2022/05/05 07:08:22;;;;;;;;;;;20.50;75.60;;;;;;5074063;28;20275;-48
2022/05/05 07:10:54;;;;;;;;;;;20.70;80.00;;;;;;5073664;28;19925;-48
2022/05/05 07:13:23;;;;;;;;;;;20.80;79.70;;;;;;5073798;28;19924;-53
2022/05/05 07:15:48;;;;;;;;;;;21.00;76.20;;;;;;5073893;28;19970;-47
2022/05/05 07:18:14;;;;;;;;;;;21.00;75.90;;;;;;5074069;28;19924;-48
2022/05/05 07:20:39;;;;;;;;;;;21.20;76.10;;;;;;5073758;28;19924;-51
2022/05/05 07:23:07;;;;;;;;;;;21.30;74.20;;;;;;5073380;28;20015;-48
2022/05/05 07:25:33;;;;;;;;;;;21.30;74.70;;;;;;5073580;28;20011;-50
2022/05/05 07:27:58;;;;;;;;;;;21.00;68.10;;;;;;5073508;28;19974;-49
2022/05/05 07:30:24;;;;;;;;;;;20.80;71.20;;;;;;5073475;28;20057;-51
2022/05/05 07:32:49;;;;;;;;;;;20.10;68.80;;;;;;5073435;28;20066;-49
2022/05/05 07:35:15;;;;;;;;;;;19.70;69.90;;;;;;5073281;28;20437;-47
2022/05/05 07:37:41;;;;;;;;;;;19.10;73.40;;;;;;5073190;28;19924;-49
2022/05/05 07:40:07;;;;;;;;;;;18.70;73.60;;;;;;5073356;28;19925;-47
2022/05/05 07:42:32;;;;;;;;;;;18.50;76.70;;;;;;5075944;28;20413;-52
2022/05/05 07:44:58;;;;;;;;;;;17.80;76.20;;;;;;5077187;28;19925;-50
2022/05/05 07:47:25;;;;;;;;;;;17.80;77.00;;;;;;5077317;28;19931;-50
2022/05/05 07:49:51;;;;;;;;;;;17.90;78.90;;;;;;5076814;28;20448;-47
2022/05/05 07:52:16;;;;;;;;;;;17.80;74.90;;;;;;5076571;28;19928;-47
2022/05/05 07:54:44;;;;;;;;;;;17.30;70.30;;;;;;5076791;28;19924;-50
2022/05/05 07:57:13;;;;;;;;;;;17.40;73.70;;;;;;5076971;28;19931;-49
2022/05/05 07:59:39;;;;;;;;;;;17.60;73.90;;;;;;5076890;28;19928;-47
2022/05/05 08:02:08;;;;;;;;;;;17.30;74.50;;;;;;5077347;28;20366;-48
2022/05/05 08:04:33;;;;;;;;;;;17.60;74.90;;;;;;5076510;28;19924;-48
2022/05/05 08:06:59;;;;;;;;;;;17.70;73.90;;;;;;5076704;28;19931;-51
2022/05/05 08:09:24;;;;;;;;;;;17.40;71.60;;;;;;5076782;28;20409;-49
2022/05/05 08:11:50;;;;;;;;;;;17.30;71.70;;;;;;5076816;28;20293;-49
2022/05/05 08:14:15;;;;;;;;;;;17.60;73.80;;;;;;5076480;28;19972;-47
2022/05/05 08:16:40;;;;;;;;;;;17.20;74.90;;;;;;5076597;28;19931;-47
2022/05/05 08:19:06;;;;;;;;;;;17.70;77.70;;;;;;5076502;28;19924;-49
2022/05/05 08:21:32;;;;;;;;;;;17.80;76.00;;;;;;5076342;28;19924;-47
2022/05/05 08:29:26;;;;;;;;;;;18.50;75.10;;;;;;5076571;28;20341;-48
2022/05/05 08:31:52;;;;;;;;;;;18.30;72.60;;;;;;5076055;28;19964;-49
2022/05/05 08:34:17;;;;;;;;;;;18.20;74.00;;;;;;5076203;28;19966;-50
2022/05/05 08:36:42;;;;;;;;;;;18.40;74.60;;;;;;5076211;28;20413;-48
2022/05/05 08:39:08;;;;;;;;;;;18.60;74.30;;;;;;5076282;28;19925;-49
2022/05/05 08:41:33;;;;;;;;;;;18.40;70.80;;;;;;5075886;28;19928;-50
2022/05/05 08:44:00;;;;;;;;;;;18.50;73.50;;;;;;5075797;28;20356;-47
2022/05/05 08:46:27;;;;;;;;;;;18.70;71.80;;;;;;5075609;28;20015;-50
2022/05/05 08:49:01;;;;;;;;;;;19.10;74.80;;;;;;5075653;28;19932;-47
2022/05/05 08:51:30;;;;;;;;;;;18.70;68.60;;;;;;5057313;28;20343;-51
2022/05/05 08:53:56;;;;;;;;;;;18.40;69.40;;;;;;5074682;28;19960;-50
2022/05/05 08:56:21;;;;;;;;;;;18.30;70.50;;;;;;5075911;28;19924;-49
2022/05/05 08:58:47;;;;;;;;;;;18.70;73.60;;;;;;5075403;28;19928;-50
2022/05/05 09:01:12;;;;;;;;;;;18.90;74.40;;;;;;5075021;28;19978;-51
2022/05/05 09:03:38;;;;;;;;;;;19.00;71.90;;;;;;5075370;28;19924;-52
2022/05/05 09:06:04;;;;;;;;;;;18.30;68.10;;;;;;5075057;28;20447;-50
2022/05/05 09:08:31;;;;;;;;;;;18.70;70.20;;;;;;5075414;28;20011;-49
2022/05/05 09:10:58;;;;;;;;;;;18.90;71.10;;;;;;5075066;28;19925;-48
2022/05/05 09:13:25;;;;;;;;;;;18.80;70.10;;;;;;5075124;28;19928;-52
2022/05/05 09:15:51;;;;;;;;;;;19.00;71.20;;;;;;5075001;28;19925;-50
2022/05/05 09:18:17;;;;;;;;;;;18.90;70.40;;;;;;5074993;28;19925;-50
2022/05/05 09:20:43;;;;;;;;;;;19.20;71.60;;;;;;5057118;28;19924;-50
2022/05/05 09:23:10;;;;;;;;;;;19.50;69.80;;;;;;5074949;28;20338;-48
2022/05/05 09:25:48;;;;;;;;;;;19.10;68.60;;;;;;5074674;28;20371;-52
2022/05/05 09:28:16;;;;;;;;;;;19.40;69.70;;;;;;5074541;28;19928;-49
2022/05/05 09:30:49;;;;;;;;;;;19.80;68.90;;;;;;5074869;28;19978;-50
2022/05/05 09:33:35;;;;;;;;;;;20.20;75.10;;;;;;5074794;28;19938;-50
2022/05/05 09:36:02;;;;;;;;;;;20.30;68.70;;;;;;5074627;28;19948;-54
2022/05/05 09:38:46;;;;;;;;;;;20.60;71.80;;;;;;5074588;28;19924;-49
2022/05/05 09:41:12;;;;;;;;;;;20.70;67.30;;;;;;5074734;28;19937;-50
2022/05/05 09:43:37;;;;;;;;;;;21.00;67.90;;;;;;5074424;28;19925;-47
2022/05/05 09:46:27;;;;;;;;;;;21.20;68.70;;;;;;5074562;28;20027;-51
2022/05/05 09:48:53;;;;;;;;;;;21.10;66.90;;;;;;5074189;28;19925;-50
2022/05/05 09:51:21;;;;;;;;;;;21.30;67.90;;;;;;5073949;28;20401;-49
2022/05/05 09:59:29;;;;;;;;;;;21.10;69.20;;;;;;5074122;28;20015;-49
2022/05/05 10:01:59;;;;;;;;;;;21.50;67.50;;;;;;5074111;28;20011;-53
2022/05/05 10:04:25;;;;;;;;;;;21.40;61.30;;;;;;5074057;28;19970;-49
2022/05/05 10:06:52;;;;;;;;;;;20.80;62.90;;;;;;5073966;28;19928;-49
2022/05/05 10:09:17;;;;;;;;;;;21.20;65.10;;;;;;5074009;28;20336;-49
2022/05/05 10:11:43;;;;;;;;;;;21.40;65.80;;;;;;5073947;28;19978;-48
2022/05/05 10:14:09;;;;;;;;;;;21.20;62.00;;;;;;5073525;28;20441;-49
2022/05/05 10:16:38;;;;;;;;;;;21.00;61.80;;;;;;5074182;28;20280;-53
2022/05/05 10:19:06;;;;;;;;;;;20.60;61.60;;;;;;5073945;28;19925;-52
2022/05/05 10:21:37;;;;;;;;;;;21.00;64.50;;;;;;5056348;28;19924;-51
2022/05/05 10:24:10;;;;;;;;;;;20.60;61.80;;;;;;5073774;28;19932;-51
2022/05/05 10:26:36;;;;;;;;;;;20.60;62.50;;;;;;5073745;28;19925;-53
2022/05/05 10:29:02;;;;;;;;;;;20.80;64.80;;;;;;5074047;28;20374;-50
2022/05/05 10:31:31;;;;;;;;;;;21.10;65.50;;;;;;5074097;28;20394;-50
2022/05/05 10:33:56;;;;;;;;;;;21.10;63.60;;;;;;5073667;28;19924;-48
2022/05/05 10:36:23;;;;;;;;;;;21.10;61.90;;;;;;5074221;28;19924;-49
2022/05/05 10:38:50;;;;;;;;;;;20.80;61.50;;;;;;5073652;28;19990;-53
2022/05/05 10:41:37;;;;;;;;;;;20.40;61.50;;;;;;5073406;28;20321;-47
2022/05/05 10:44:22;;;;;;;;;;;20.40;61.50;;;;;;5073676;28;19924;-50
2022/05/05 10:46:51;;;;;;;;;;;20.30;62.30;;;;;;5073859;28;19948;-52
2022/05/05 10:49:31;;;;;;;;;;;20.50;65.50;;;;;;5073474;28;19925;-52
2022/05/05 10:52:12;;;;;;;;;;;20.10;63.90;;;;;;5073471;28;19924;-49
2022/05/05 10:54:47;;;;;;;;;;;20.60;64.90;;;;;;5073352;28;19928;-50
2022/05/05 10:57:24;;;;;;;;;;;20.70;66.00;;;;;;5073585;28;19935;-53
2022/05/05 11:00:09;;;;;;;;;;;20.60;65.10;;;;;;5073236;28;19928;-51
2022/05/05 11:02:35;;;;;;;;;;;21.00;68.10;;;;;;5073316;28;20313;-49
2022/05/05 11:05:19;;;;;;;;;;;21.20;67.30;;;;;;5073390;28;19939;-48
2022/05/05 11:07:46;;;;;;;;;;;21.40;66.90;;;;;;5073163;28;19925;-49
2022/05/05 11:10:30;;;;;;;;;;;21.50;65.80;;;;;;5073463;28;19924;-51
2022/05/05 11:12:56;;;;;;;;;;;21.80;66.00;;;;;;5073366;28;19928;-53
2022/05/05 11:23:56;;;;;;;;;;;21.80;62.30;;;;;;5077526;28;19931;-52
2022/05/05 11:26:22;;;;;;;;;;;21.80;62.60;;;;;;5077258;28;20371;-49
2022/05/05 11:28:48;;;;;;;;;;;21.80;63.20;;;;;;5077085;28;19925;-52
2022/05/05 11:31:19;;;;;;;;;;;22.00;64.20;;;;;;5077198;28;19946;-49
2022/05/05 11:33:48;;;;;;;;;;;22.30;64.40;;;;;;5077065;28;19928;-51
2022/05/05 11:36:13;;;;;;;;;;;22.50;60.40;;;;;;5077124;28;19925;-49
2022/05/05 11:38:41;;;;;;;;;;;22.60;63.50;;;;;;5077102;28;19970;-51
2022/05/05 11:41:07;;;;;;;;;;;22.40;59.50;;;;;;5077202;28;19924;-50
2022/05/05 11:46:17;;;;;;;;;;;22.30;58.90;;;;;;5077045;28;19930;-52
2022/05/05 11:48:45;;;;;;;;;;;22.10;58.90;;;;;;5077266;28;19924;-49
2022/05/05 11:51:11;;;;;;;;;;;22.10;59.30;;;;;;5076685;28;19932;-53
2022/05/05 11:53:36;;;;;;;;;;;22.20;58.30;;;;;;5076775;28;19924;-50
2022/05/05 11:56:03;;;;;;;;;;;22.40;58.40;;;;;;5076963;28;20344;-50
2022/05/05 12:04:00;;;;;;;;;;;22.30;56.80;;;;;;5076701;28;19993;-52
2022/05/05 12:06:26;;;;;;;;;;;22.70;59.00;;;;;;5077223;28;19925;-53
2022/05/05 12:08:52;;;;;;;;;;;22.80;58.80;;;;;;5076833;28;19977;-54
2022/05/05 12:11:18;;;;;;;;;;;22.90;57.60;;;;;;5076871;28;20023;-52
2022/05/05 12:13:43;;;;;;;;;;;22.30;55.40;;;;;;5076551;28;19924;-49
2022/05/05 12:16:10;;;;;;;;;;;22.70;57.90;;;;;;5076524;28;20328;-52
2022/05/05 12:18:51;;;;;;;;;;;22.80;57.00;;;;;;5076358;28;19924;-53
2022/05/05 12:21:23;;;;;;;;;;;22.80;57.10;;;;;;5076396;28;20077;-53
2022/05/05 12:23:59;;;;;;;;;;;22.90;57.30;;;;;;5076562;28;20413;-52
2022/05/05 12:26:32;;;;;;;;;;;23.00;57.60;;;;;;5076445;28;19924;-50
2022/05/05 12:28:57;;;;;;;;;;;22.80;53.40;;;;;;5074835;28;19931;-50
2022/05/05 12:31:24;;;;;;;;;;;22.20;53.60;;;;;;5076010;28;19924;-53
2022/05/05 12:33:50;;;;;;;;;;;22.10;53.30;;;;;;5075810;28;19925;-50
2022/05/05 12:36:19;;;;;;;;;;;22.10;54.40;;;;;;5076257;28;20355;-53
2022/05/05 12:38:44;;;;;;;;;;;22.00;55.00;;;;;;5076132;28;19924;-50
2022/05/05 12:41:10;;;;;;;;;;;22.00;55.50;;;;;;5075876;28;20397;-52
2022/05/05 12:43:36;;;;;;;;;;;21.90;52.80;;;;;;5076217;28;19924;-53
2022/05/05 12:46:02;;;;;;;;;;;21.80;54.30;;;;;;5076183;28;20011;-52
2022/05/05 12:48:28;;;;;;;;;;;21.90;53.90;;;;;;5076351;28;20382;-53
2022/05/05 12:50:54;;;;;;;;;;;22.20;56.90;;;;;;5075831;28;19928;-53
2022/05/05 13:01:47;;;;;;;;;;;22.60;55.70;;;;;;5076414;28;20062;-51
2022/05/05 13:04:14;;;;;;;;;;;22.50;56.50;;;;;;5057981;28;20283;-51
2022/05/05 13:06:41;;;;;;;;;;;22.10;56.10;;;;;;5075716;28;19931;-52
2022/05/05 13:09:08;;;;;;;;;;;21.90;56.60;;;;;;5075792;28;19924;-50
2022/05/05 13:11:40;;;;;;;;;;;21.70;56.20;;;;;;5075991;28;19931;-50
2022/05/05 13:14:06;;;;;;;;;;;22.00;58.30;;;;;;5075428;28;19924;-51
2022/05/05 13:16:32;;;;;;;;;;;22.30;58.90;;;;;;5075633;28;20401;-52
2022/05/05 13:18:58;;;;;;;;;;;21.90;56.70;;;;;;5075324;28;20390;-51
2022/05/05 13:21:24;;;;;;;;;;;22.20;58.60;;;;;;5075380;28;19924;-52
2022/05/05 13:23:49;;;;;;;;;;;21.90;57.20;;;;;;5075556;28;19925;-50
2022/05/05 13:26:15;;;;;;;;;;;21.80;57.80;;;;;;5075478;28;20019;-53
2022/05/05 13:28:40;;;;;;;;;;;21.20;55.80;;;;;;5075630;28;19932;-48
2022/05/05 13:31:06;;;;;;;;;;;21.10;57.40;;;;;;5075141;28;20117;-52
2022/05/05 13:33:31;;;;;;;;;;;20.80;58.30;;;;;;5075472;28;19924;-50
2022/05/05 13:35:57;;;;;;;;;;;20.50;57.40;;;;;;5075122;28;20440;-50
2022/05/05 13:38:26;;;;;;;;;;;20.50;58.70;;;;;;5075265;28;20023;-50
2022/05/05 13:40:52;;;;;;;;;;;20.60;58.20;;;;;;5074682;28;20374;-52
2022/05/05 13:43:17;;;;;;;;;;;20.50;58.90;;;;;;5075243;28;19924;-52
2022/05/05 13:45:43;;;;;;;;;;;20.40;58.70;;;;;;5075051;28;20374;-51
2022/05/05 13:48:08;;;;;;;;;;;20.70;60.80;;;;;;5074966;28;19931;-50
2022/05/05 13:50:34;;;;;;;;;;;20.60;58.40;;;;;;5074903;28;20278;-50
2022/05/05 13:52:59;;;;;;;;;;;20.70;60.00;;;;;;5074220;28;19971;-51
2022/05/05 13:55:28;;;;;;;;;;;20.80;59.00;;;;;;5074634;28;19925;-51
2022/05/05 13:57:54;;;;;;;;;;;20.90;59.30;;;;;;5074525;28;20022;-53
2022/05/05 14:00:20;;;;;;;;;;;20.50;59.50;;;;;;5074712;28;19968;-51
2022/05/05 14:02:45;;;;;;;;;;;20.80;61.80;;;;;;5074732;28;19932;-51
2022/05/05 14:05:11;;;;;;;;;;;20.80;59.90;;;;;;5074598;28;20434;-50
2022/05/05 14:13:05;;;;;;;;;;;21.10;60.70;;;;;;5074593;28;19999;-53
2022/05/05 14:15:31;;;;;;;;;;;21.10;58.90;;;;;;5074460;28;20412;-50
2022/05/05 14:17:57;;;;;;;;;;;20.90;59.90;;;;;;5074652;28;19935;-53
2022/05/05 14:20:23;;;;;;;;;;;20.90;59.50;;;;;;5074527;28;20370;-52
2022/05/05 14:22:48;;;;;;;;;;;20.80;58.90;;;;;;5074641;28;19924;-50
2022/05/05 14:25:14;;;;;;;;;;;20.80;59.00;;;;;;5074536;28;20469;-51
2022/05/05 14:27:40;;;;;;;;;;;20.40;58.60;;;;;;5074872;28;19924;-53
2022/05/05 14:30:06;;;;;;;;;;;20.50;60.20;;;;;;5073938;28;19924;-49
2022/05/05 14:32:31;;;;;;;;;;;20.60;60.10;;;;;;5074357;28;19924;-53
2022/05/05 14:34:57;;;;;;;;;;;20.50;60.70;;;;;;5073952;28;19970;-52
2022/05/05 14:37:23;;;;;;;;;;;20.60;59.50;;;;;;5073684;28;19924;-50
2022/05/05 14:39:49;;;;;;;;;;;20.60;59.70;;;;;;5073574;28;19968;-51
2022/05/05 14:42:14;;;;;;;;;;;20.30;58.90;;;;;;5073595;28;19947;-51
2022/05/05 14:44:40;;;;;;;;;;;20.20;59.60;;;;;;5073533;28;19931;-52
2022/05/05 14:47:06;;;;;;;;;;;20.30;60.70;;;;;;5073565;28;20371;-51
2022/05/05 14:49:31;;;;;;;;;;;20.40;61.40;;;;;;5073816;28;19925;-51
2022/05/05 14:51:57;;;;;;;;;;;20.40;59.70;;;;;;5072977;28;19932;-52
2022/05/05 14:54:22;;;;;;;;;;;20.20;59.20;;;;;;5073680;28;19925;-52
2022/05/05 14:56:48;;;;;;;;;;;20.00;59.30;;;;;;5055412;28;19925;-50
2022/05/05 14:59:13;;;;;;;;;;;19.90;60.20;;;;;;5073327;28;19940;-49
2022/05/05 15:01:39;;;;;;;;;;;19.90;61.30;;;;;;5073652;28;19924;-51
2022/05/05 15:04:05;;;;;;;;;;;20.00;63.10;;;;;;5055492;28;19944;-52
2022/05/05 15:06:30;;;;;;;;;;;20.10;62.30;;;;;;5073836;28;20303;-52
2022/05/05 15:08:56;;;;;;;;;;;19.90;60.70;;;;;;5055383;28;20007;-49
2022/05/05 15:11:22;;;;;;;;;;;19.80;60.60;;;;;;5073267;28;19970;-49
2022/05/05 15:13:48;;;;;;;;;;;19.90;61.50;;;;;;5072964;28;19982;-53
2022/05/05 15:16:13;;;;;;;;;;;19.90;62.30;;;;;;5073118;28;19931;-47
2022/05/05 15:18:39;;;;;;;;;;;19.90;64.60;;;;;;5073385;28;20367;-53
2022/05/05 15:21:04;;;;;;;;;;;19.90;61.60;;;;;;5055390;28;19924;-51